createdAt,value
2023-04-07T00:02:37.729Z,78.81
2023-04-07T00:05:23.560Z,77.89
2023-04-07T00:08:09.249Z,78.31
2023-04-07T00:10:54.965Z,77.96
2023-04-07T00:13:40.707Z,78.45
2023-04-07T00:16:26.690Z,78.62
2023-04-07T00:19:12.656Z,78.44
2023-04-07T00:21:58.626Z,78.49
2023-04-07T00:24:44.743Z,78.13
2023-04-07T00:27:31.052Z,78.13
2023-04-07T00:30:17.921Z,78.46
2023-04-07T00:33:04.195Z,78.05
2023-04-07T00:35:57.973Z,78.32
2023-04-07T00:38:44.173Z,78.62
2023-04-07T00:41:29.821Z,79.07
2023-04-07T00:44:16.198Z,78.30
2023-04-07T00:47:02.710Z,78.89
2023-04-07T00:49:49.318Z,78.29
2023-04-07T00:52:36.172Z,78.48
2023-04-07T00:55:22.001Z,78.54
2023-04-07T00:58:08.071Z,78.59
2023-04-07T01:01:09.343Z,78.70
2023-04-07T01:04:02.459Z,78.76
2023-04-07T01:06:51.150Z,78.91
2023-04-07T01:09:51.256Z,78.79
2023-04-07T01:12:47.336Z,78.59
2023-04-07T01:15:35.089Z,78.63
2023-04-07T01:18:25.396Z,78.67
2023-04-07T01:21:14.472Z,78.79
2023-04-07T01:24:39.264Z,79.03
2023-04-07T01:27:33.161Z,77.75
2023-04-07T01:30:19.702Z,77.81
2023-04-07T01:33:06.528Z,78.04
2023-04-07T01:35:53.550Z,78.19
2023-04-07T01:38:39.838Z,78.38
2023-04-07T01:41:26.409Z,79.16
2023-04-07T01:44:12.303Z,79.11
2023-04-07T01:46:58.768Z,79.22
2023-04-07T01:49:45.555Z,79.33
2023-04-07T01:52:33.344Z,79.50
2023-04-07T01:55:19.366Z,78.75
2023-04-07T01:58:20.591Z,79.39
2023-04-07T02:01:06.796Z,79.42
2023-04-07T02:04:22.741Z,79.14
2023-04-07T02:07:20.375Z,78.72
2023-04-07T02:10:12.557Z,78.42
2023-04-07T02:12:58.912Z,78.74
2023-04-07T02:15:45.914Z,79.16
2023-04-07T02:18:32.508Z,78.85
2023-04-07T02:21:18.884Z,79.03
2023-04-07T02:24:08.374Z,78.90
2023-04-07T02:26:54.157Z,78.83
2023-04-07T02:29:40.986Z,79.07
2023-04-07T02:32:26.997Z,79.60
2023-04-07T02:35:12.978Z,79.82
2023-04-07T02:38:01.640Z,79.27
2023-04-07T02:40:47.651Z,79.46
2023-04-07T02:43:33.516Z,79.04
2023-04-07T02:46:19.357Z,79.04
2023-04-07T02:49:04.917Z,78.83
2023-04-07T02:51:50.880Z,78.98
2023-04-07T02:54:36.863Z,78.58
2023-04-07T02:57:23.031Z,78.87
2023-04-07T03:00:12.501Z,79.00
2023-04-07T03:03:19.875Z,78.45
2023-04-07T03:06:18.524Z,78.80
2023-04-07T03:09:16.611Z,78.92
2023-04-07T03:12:02.691Z,78.66
2023-04-07T03:14:52.829Z,78.80
2023-04-07T03:17:40.906Z,78.81
2023-04-07T03:20:27.341Z,78.73
2023-04-07T03:23:13.694Z,79.08
2023-04-07T03:25:59.443Z,79.30
2023-04-07T03:28:49.610Z,78.47
2023-04-07T03:31:37.788Z,78.44
2023-04-07T03:34:23.522Z,78.28
2023-04-07T03:37:09.318Z,78.69
2023-04-07T03:39:57.388Z,78.98
2023-04-07T03:42:46.826Z,78.39
2023-04-07T03:45:33.957Z,78.65
2023-04-07T03:48:20.551Z,79.06
2023-04-07T03:51:21.717Z,78.73
2023-04-07T03:54:11.995Z,78.76
2023-04-07T03:57:02.356Z,79.00
2023-04-07T03:59:51.298Z,78.60
2023-04-07T04:02:38.272Z,79.32
2023-04-07T04:05:25.509Z,79.13
2023-04-07T04:08:11.977Z,79.33
2023-04-07T04:11:00.058Z,79.68
2023-04-07T04:13:52.982Z,79.78
2023-04-07T04:16:39.175Z,79.09
2023-04-07T04:19:35.839Z,79.41
2023-04-07T04:22:29.191Z,79.49
2023-04-07T04:25:17.510Z,79.32
2023-04-07T04:28:07.432Z,79.49
2023-04-07T04:30:54.598Z,79.13
2023-04-07T04:33:40.723Z,79.67
2023-04-07T04:36:27.739Z,79.04
2023-04-07T04:39:18.239Z,79.76
2023-04-07T04:42:05.667Z,79.79
2023-04-07T04:44:55.418Z,79.91
2023-04-07T04:47:43.314Z,80.14
2023-04-07T04:50:30.825Z,79.94
2023-04-07T04:53:22.281Z,80.40
2023-04-07T04:56:13.667Z,80.16
2023-04-07T04:59:04.958Z,79.76
2023-04-07T05:02:11.643Z,80.29
2023-04-07T05:04:58.042Z,79.78
2023-04-07T05:07:47.467Z,79.92
2023-04-07T05:10:41.511Z,79.84
2023-04-07T05:13:32.102Z,79.54
2023-04-07T05:16:20.973Z,79.33
2023-04-07T05:19:07.278Z,79.92
2023-04-07T05:21:53.810Z,80.00
2023-04-07T05:24:41.677Z,80.16
2023-04-07T05:27:27.451Z,80.32
2023-04-07T05:30:17.744Z,80.17
2023-04-07T05:33:03.891Z,79.65
2023-04-07T05:36:00.639Z,79.55
2023-04-07T05:38:46.534Z,79.59
2023-04-07T05:41:36.587Z,80.34
2023-04-07T05:44:23.260Z,80.03
2023-04-07T05:47:11.524Z,80.25
2023-04-07T05:49:58.711Z,79.45
2023-04-07T05:52:45.285Z,80.06
2023-04-07T05:55:45.987Z,79.93
2023-04-07T05:58:40.630Z,80.38
2023-04-07T06:01:29.282Z,79.95
2023-04-07T06:04:15.419Z,80.12
2023-04-07T06:07:02.495Z,80.02
2023-04-07T06:09:48.212Z,80.51
2023-04-07T06:12:34.099Z,80.60
2023-04-07T06:15:19.780Z,80.42
2023-04-07T06:18:05.727Z,80.11
2023-04-07T06:20:52.091Z,80.40
2023-04-07T06:23:37.712Z,79.92
2023-04-07T06:26:26.336Z,79.95
2023-04-07T06:29:15.200Z,79.73
2023-04-07T06:32:02.566Z,79.93
2023-04-07T06:34:48.665Z,79.57
2023-04-07T06:37:34.354Z,78.24
2023-04-07T06:40:20.012Z,78.43
2023-04-07T06:43:06.338Z,78.72
2023-04-07T06:46:01.781Z,79.27
2023-04-07T06:48:47.647Z,79.47
2023-04-07T06:51:33.496Z,78.97
2023-04-07T06:54:19.116Z,79.16
2023-04-07T06:57:05.221Z,78.67
2023-04-07T06:59:51.277Z,78.69
2023-04-07T07:02:37.414Z,79.29
2023-04-07T07:05:23.685Z,78.96
2023-04-07T07:08:09.570Z,79.65
2023-04-07T07:11:27.422Z,79.50
2023-04-07T07:14:13.395Z,79.43
2023-04-07T07:16:59.419Z,79.53
2023-04-07T07:19:48.590Z,79.25
2023-04-07T07:22:34.182Z,79.24
2023-04-07T07:25:20.119Z,79.10
2023-04-07T07:29:18.122Z,79.04
2023-04-07T07:32:04.262Z,78.53
2023-04-07T07:34:50.108Z,78.38
2023-04-07T07:37:39.937Z,76.79
2023-04-07T07:40:29.703Z,76.95
2023-04-07T07:43:15.451Z,76.85
2023-04-07T07:46:01.265Z,78.04
2023-04-07T07:48:47.273Z,75.61
2023-04-07T07:51:33.022Z,75.87
2023-04-07T07:54:22.856Z,76.87
2023-04-07T07:57:09.035Z,76.77
2023-04-07T07:59:54.923Z,77.18
2023-04-07T08:02:40.800Z,76.98
2023-04-07T08:05:26.914Z,74.82
2023-04-07T08:08:12.967Z,76.36
2023-04-07T08:10:59.051Z,74.99
2023-04-07T08:13:46.752Z,74.25
2023-04-07T08:16:33.450Z,73.72
2023-04-07T08:19:19.261Z,74.42
2023-04-07T08:22:05.062Z,74.48
2023-04-07T08:24:50.999Z,75.65
2023-04-07T08:27:37.046Z,76.33
2023-04-07T08:30:22.788Z,76.55
2023-04-07T08:33:08.741Z,72.76
2023-04-07T08:35:54.450Z,71.53
2023-04-07T08:38:40.603Z,74.15
2023-04-07T08:41:42.422Z,75.03
2023-04-07T08:44:37.214Z,75.23
2023-04-07T08:47:23.850Z,72.32
2023-04-07T08:50:11.487Z,73.72
2023-04-07T08:52:57.710Z,74.53
2023-04-07T08:55:43.211Z,75.08
2023-04-07T08:58:46.625Z,76.68
2023-04-07T09:01:32.580Z,75.86
2023-04-07T09:04:18.584Z,76.37
2023-04-07T09:07:04.486Z,76.30
2023-04-07T09:09:50.807Z,74.92
2023-04-07T09:12:39.120Z,76.45
2023-04-07T09:15:26.101Z,75.30
2023-04-07T09:18:11.990Z,74.86
2023-04-07T09:21:46.892Z,75.64
2023-04-07T09:24:32.644Z,75.21
2023-04-07T09:27:23.179Z,75.03
2023-04-07T09:30:17.477Z,73.55
2023-04-07T09:33:03.501Z,74.59
2023-04-07T09:35:56.937Z,75.81
2023-04-07T09:39:08.528Z,75.30
2023-04-07T09:42:07.927Z,74.61
2023-04-07T09:44:59.831Z,75.31
2023-04-07T09:48:20.940Z,74.86
2023-04-07T09:51:12.774Z,74.40
2023-04-07T09:53:58.593Z,74.05
2023-04-07T09:56:44.941Z,74.99
2023-04-07T09:59:32.356Z,74.29
2023-04-07T10:02:18.376Z,72.94
2023-04-07T10:05:04.896Z,73.64
2023-04-07T10:07:51.546Z,71.19
2023-04-07T10:10:42.944Z,71.46
2023-04-07T10:13:32.969Z,71.04
2023-04-07T10:16:19.314Z,72.66
2023-04-07T10:19:06.428Z,73.77
2023-04-07T10:21:53.754Z,73.07
2023-04-07T10:29:15.219Z,73.42
2023-04-07T10:32:02.515Z,73.77
2023-04-07T10:34:51.234Z,74.17
2023-04-07T10:37:37.515Z,74.20
2023-04-07T10:40:30.239Z,74.00
2023-04-07T10:43:40.905Z,73.16
2023-04-07T10:46:49.606Z,71.59
2023-04-07T10:49:36.047Z,72.03
2023-04-07T10:52:23.406Z,73.09
2023-04-07T10:55:29.027Z,73.32
2023-04-07T10:58:19.265Z,74.02
2023-04-07T11:01:08.575Z,72.14
2023-04-07T11:03:59.651Z,73.57
2023-04-07T11:06:48.503Z,74.67
2023-04-07T11:09:34.540Z,73.85
2023-04-07T11:12:24.175Z,72.29
2023-04-07T11:15:22.247Z,72.56
2023-04-07T11:18:18.592Z,73.83
2023-04-07T11:21:06.414Z,73.65
2023-04-07T11:23:52.385Z,74.02
2023-04-07T11:26:40.231Z,73.63
2023-04-07T11:29:30.759Z,72.97
2023-04-07T11:32:16.841Z,72.93
2023-04-07T11:35:07.029Z,74.66
2023-04-07T11:37:59.841Z,74.77
2023-04-07T11:40:47.098Z,72.69
2023-04-07T11:43:34.195Z,72.72
2023-04-07T11:46:20.052Z,74.13
2023-04-07T11:49:13.879Z,75.01
2023-04-07T11:52:09.529Z,73.26
2023-04-07T11:54:55.544Z,73.67
2023-04-07T11:57:41.730Z,73.39
2023-04-07T12:00:28.216Z,74.07
2023-04-07T12:03:14.682Z,74.30
2023-04-07T12:06:02.432Z,73.43
2023-04-07T12:08:48.515Z,70.11
2023-04-07T12:11:36.027Z,71.52
2023-04-07T12:14:22.328Z,70.79
2023-04-07T12:17:21.232Z,70.40
2023-04-07T12:20:07.913Z,71.32
2023-04-07T12:22:54.032Z,72.66
2023-04-07T12:25:40.006Z,71.78
2023-04-07T12:28:25.629Z,70.23
2023-04-07T12:31:11.466Z,73.52
2023-04-07T12:33:57.046Z,75.20
2023-04-07T12:36:43.803Z,73.29
2023-04-07T12:39:29.714Z,74.24
2023-04-07T12:42:15.548Z,74.43
2023-04-07T12:45:01.458Z,70.86
2023-04-07T12:47:47.551Z,69.26
2023-04-07T12:50:36.449Z,72.33
2023-04-07T12:53:23.681Z,72.44
2023-04-07T12:56:09.515Z,72.84
2023-04-07T12:58:55.234Z,75.68
2023-04-07T13:01:41.260Z,76.51
2023-04-07T13:04:30.437Z,74.58
2023-04-07T13:07:16.365Z,75.52
2023-04-07T13:10:02.972Z,76.80
2023-04-07T13:12:49.007Z,76.51
2023-04-07T13:15:34.812Z,76.84
2023-04-07T13:18:20.511Z,77.27
2023-04-07T13:21:38.203Z,76.51
2023-04-07T13:24:12.242Z,75.90
2023-04-07T13:26:59.596Z,75.25
2023-04-07T13:29:45.851Z,75.82
2023-04-07T13:32:31.762Z,76.37
2023-04-07T13:35:18.002Z,76.83
2023-04-07T13:38:04.085Z,74.53
2023-04-07T13:40:49.832Z,74.56
2023-04-07T13:43:35.794Z,75.32
2023-04-07T13:46:28.628Z,75.83
2023-04-07T13:49:15.184Z,76.17
2023-04-07T13:52:00.849Z,75.67
2023-04-07T13:54:46.480Z,75.86
2023-04-07T13:57:32.303Z,75.78
2023-04-07T14:00:18.618Z,75.55
2023-04-07T14:03:04.697Z,74.86
2023-04-07T14:05:50.800Z,74.85
2023-04-07T14:08:36.689Z,72.77
2023-04-07T14:11:22.721Z,75.15
2023-04-07T14:14:08.740Z,75.86
2023-04-07T14:16:54.925Z,75.11
2023-04-07T14:19:40.786Z,74.65
2023-04-07T14:22:26.673Z,74.80
2023-04-07T14:25:12.421Z,74.52
2023-04-07T14:27:58.274Z,73.85
2023-04-07T14:30:44.387Z,73.82
2023-04-07T14:33:30.647Z,73.83
2023-04-07T14:36:19.313Z,74.38
2023-04-07T14:39:05.486Z,74.79
2023-04-07T14:41:52.759Z,74.96
2023-04-07T14:44:45.952Z,74.66
2023-04-07T14:47:31.708Z,74.21
2023-04-07T14:50:17.585Z,73.32
2023-04-07T14:53:03.792Z,72.80
2023-04-07T14:55:49.935Z,74.24
2023-04-07T14:58:37.624Z,73.96
2023-04-07T15:01:23.429Z,73.37
2023-04-07T15:04:09.293Z,73.05
2023-04-07T15:06:56.226Z,72.44
2023-04-07T15:09:41.958Z,73.83
2023-04-07T15:12:29.841Z,73.90
2023-04-07T15:15:16.689Z,72.02
2023-04-07T15:18:04.108Z,72.26
2023-04-07T15:20:50.279Z,73.70
2023-04-07T15:23:37.888Z,72.43
2023-04-07T15:26:23.774Z,68.46
2023-04-07T15:29:09.434Z,69.63
2023-04-07T15:31:55.638Z,69.25
2023-04-07T15:34:41.589Z,68.89
2023-04-07T15:37:27.480Z,69.42
2023-04-07T15:40:14.479Z,69.79
2023-04-07T15:43:00.954Z,69.93
2023-04-07T15:45:47.923Z,69.65
2023-04-07T15:48:33.689Z,70.43
2023-04-07T15:51:19.462Z,69.27
2023-04-07T15:54:05.402Z,69.66
2023-04-07T15:56:51.937Z,69.55
2023-04-07T15:59:37.573Z,69.91
2023-04-07T16:02:24.716Z,70.48
2023-04-07T16:05:10.648Z,70.30
2023-04-07T16:07:56.651Z,70.53
2023-04-07T16:10:42.697Z,71.37
2023-04-07T16:13:28.466Z,71.96
2023-04-07T16:16:14.270Z,71.75
2023-04-07T16:19:00.109Z,69.58
2023-04-07T16:21:46.065Z,71.74
2023-04-07T16:24:31.944Z,73.87
2023-04-07T16:27:17.544Z,73.72
2023-04-07T16:30:06.978Z,72.84
2023-04-07T16:32:52.829Z,72.97
2023-04-07T16:35:39.008Z,72.53
2023-04-07T16:38:24.849Z,72.43
2023-04-07T16:41:11.060Z,73.03
2023-04-07T16:43:57.168Z,73.12
2023-04-07T16:46:42.767Z,72.98
2023-04-07T16:49:28.505Z,73.18
2023-04-07T16:52:14.295Z,73.59
2023-04-07T16:55:00.778Z,73.50
2023-04-07T16:57:46.678Z,73.02
2023-04-07T17:00:32.602Z,73.02
2023-04-07T17:03:18.473Z,73.29
2023-04-07T17:06:07.449Z,73.57
2023-04-07T17:08:53.395Z,74.04
2023-04-07T17:11:41.184Z,73.33
2023-04-07T17:14:26.867Z,73.91
2023-04-07T17:17:13.076Z,73.32
2023-04-07T17:20:00.579Z,73.90
2023-04-07T17:22:49.146Z,73.61
2023-04-07T17:25:35.508Z,74.19
2023-04-07T17:28:21.945Z,74.53
2023-04-07T17:31:07.848Z,74.63
2023-04-07T17:33:53.881Z,74.36
2023-04-07T17:36:40.973Z,74.57
2023-04-07T17:39:26.908Z,74.83
2023-04-07T17:42:12.723Z,75.09
2023-04-07T17:45:04.961Z,75.08
2023-04-07T17:47:53.365Z,74.27
2023-04-07T17:50:42.507Z,74.17
2023-04-07T17:53:29.751Z,74.57
2023-04-07T17:56:15.763Z,74.64
2023-04-07T17:59:01.591Z,73.78
2023-04-07T18:01:47.531Z,74.25
2023-04-07T18:04:33.882Z,74.38
2023-04-07T18:07:20.995Z,74.28
2023-04-07T18:10:07.317Z,75.27
2023-04-07T18:12:53.070Z,75.19
2023-04-07T18:15:38.735Z,74.80
2023-04-07T18:18:24.719Z,74.82
2023-04-07T18:21:10.857Z,74.81
2023-04-07T18:23:56.507Z,75.06
2023-04-07T18:26:44.513Z,75.85
2023-04-07T18:29:38.638Z,75.83
2023-04-07T18:32:24.777Z,74.96
2023-04-07T18:35:10.450Z,75.56
2023-04-07T18:37:57.191Z,75.51
2023-04-07T18:40:44.077Z,75.69
2023-04-07T18:43:38.438Z,75.46
2023-04-07T18:46:24.628Z,74.61
2023-04-07T18:49:10.511Z,74.05
2023-04-07T18:51:56.293Z,74.02
2023-04-07T18:54:41.981Z,75.03
2023-04-07T18:57:28.228Z,75.22
2023-04-07T19:00:14.033Z,75.23
2023-04-07T19:02:59.938Z,75.54
2023-04-07T19:05:47.779Z,75.52
2023-04-07T19:08:33.969Z,75.65
2023-04-07T19:11:19.700Z,75.68
2023-04-07T19:14:06.044Z,75.56
2023-04-07T19:16:52.163Z,75.99
2023-04-07T19:19:37.755Z,75.19
2023-04-07T19:22:23.530Z,75.90
2023-04-07T19:25:09.399Z,75.20
2023-04-07T19:27:55.366Z,75.89
2023-04-07T19:30:41.080Z,75.30
2023-04-07T19:33:26.921Z,75.33
2023-04-07T19:36:12.981Z,75.13
2023-04-07T19:38:58.901Z,74.89
2023-04-07T19:41:44.807Z,75.45
2023-04-07T19:44:31.983Z,75.54
2023-04-07T19:47:17.598Z,75.73
2023-04-07T19:50:04.416Z,76.44
2023-04-07T19:52:53.326Z,76.16
2023-04-07T19:55:46.164Z,75.94
2023-04-07T19:58:32.916Z,75.69
2023-04-07T20:01:19.145Z,75.72
2023-04-07T20:04:05.418Z,75.30
2023-04-07T20:06:51.270Z,75.18
2023-04-07T20:09:37.545Z,74.81
2023-04-07T20:12:24.308Z,72.61
2023-04-07T20:15:11.201Z,70.52
2023-04-07T20:17:56.977Z,73.00
2023-04-07T20:20:42.896Z,75.01
2023-04-07T20:23:28.816Z,73.53
2023-04-07T20:26:14.963Z,73.25
2023-04-07T20:29:00.895Z,72.38
2023-04-07T20:31:46.969Z,73.87
2023-04-07T20:34:32.985Z,73.74
2023-04-07T20:37:19.704Z,74.21
2023-04-07T20:40:06.437Z,75.24
2023-04-07T20:42:52.078Z,75.70
2023-04-07T20:45:38.374Z,74.78
2023-04-07T20:48:24.435Z,73.25
2023-04-07T20:51:14.329Z,74.91
2023-04-07T20:54:00.010Z,74.28
2023-04-07T20:56:45.721Z,71.75
2023-04-07T20:59:32.720Z,73.67
2023-04-07T21:02:18.827Z,74.77
2023-04-07T21:05:05.173Z,74.99
2023-04-07T21:07:50.830Z,74.63
2023-04-07T21:10:36.755Z,73.97
2023-04-07T21:13:38.118Z,74.20
2023-04-07T21:16:23.967Z,73.32
2023-04-07T21:19:09.689Z,72.88
2023-04-07T21:21:55.724Z,72.52
2023-04-07T21:24:41.752Z,74.10
2023-04-07T21:27:29.457Z,76.06
2023-04-07T21:30:16.676Z,76.32
2023-04-07T21:33:02.572Z,77.27
2023-04-07T21:35:49.524Z,77.26
2023-04-07T21:38:35.825Z,76.91
2023-04-07T21:41:22.034Z,76.56
2023-04-07T21:44:10.296Z,77.09
2023-04-07T21:47:01.426Z,76.91
2023-04-07T21:50:11.366Z,76.89
2023-04-07T21:52:57.170Z,77.24
2023-04-07T21:55:43.196Z,76.95
2023-04-07T21:58:29.146Z,77.36
2023-04-07T22:01:15.039Z,76.16
2023-04-07T22:04:00.603Z,76.69
2023-04-07T22:06:51.570Z,76.12
2023-04-07T22:09:37.225Z,76.22
2023-04-07T22:12:22.850Z,76.44
2023-04-07T22:15:09.427Z,75.78
2023-04-07T22:17:56.527Z,75.47
2023-04-07T22:20:42.327Z,75.68
2023-04-07T22:23:41.589Z,76.30
2023-04-07T22:27:45.575Z,76.07
2023-04-07T22:30:37.454Z,76.49
2023-04-07T22:33:23.210Z,76.79
2023-04-07T22:36:09.182Z,76.58
2023-04-07T22:38:54.964Z,77.20
2023-04-07T22:41:41.099Z,77.50
2023-04-07T22:44:32.123Z,77.78
2023-04-07T22:47:18.290Z,76.97
2023-04-07T22:50:14.450Z,77.61
2023-04-07T22:53:00.592Z,77.43
2023-04-07T22:55:47.244Z,77.65
2023-04-07T22:58:33.335Z,77.40
2023-04-07T23:01:19.182Z,76.62
2023-04-07T23:04:06.430Z,76.60
2023-04-07T23:06:53.209Z,77.13
2023-04-07T23:09:38.886Z,76.71
2023-04-07T23:12:24.678Z,77.18
2023-04-07T23:15:10.888Z,76.57
2023-04-07T23:17:56.860Z,76.50
2023-04-07T23:20:50.163Z,76.11
2023-04-07T23:23:39.134Z,76.41
2023-04-07T23:26:34.363Z,76.74
2023-04-07T23:29:21.796Z,76.83
2023-04-07T23:32:08.139Z,76.37
2023-04-07T23:34:54.342Z,76.70
2023-04-07T23:37:42.358Z,76.18
2023-04-07T23:40:28.082Z,75.93
2023-04-07T23:43:13.788Z,76.72
2023-04-07T23:46:00.175Z,76.37
2023-04-07T23:48:45.976Z,76.68
2023-04-07T23:51:32.280Z,76.16
2023-04-07T23:54:18.408Z,77.13
2023-04-07T23:57:04.240Z,77.24
2023-04-07T23:59:49.758Z,77.21
